Preview of NWS' New Version of Forecast
This preview is not operational and should not be used for support decisions.

Terminal Aerodrome Forecast (TAF)

Issued by National Weather Service (NWS)

                            
780 
FTUS42 KKEY 250532
TAFEYW
TAF
KEYW 250532Z 2506/2606 12013KT P6SM SCT025
     FM251600 13010KT P6SM FEW020 SCT090=